Time;durP1;ratioP1;P1;durP2;ratioP2;P2;SDS_P1;SDS_P2;PMS_P1;PMS_P2;Temp;Humidity;BMP_temperature;BMP_pressure;BME280_temperature;BME280_humidity;BME280_pressure;Samples;Min_cycle;Max_cycle;Signal;HPM_P1;HPM_P2
2023/02/04 00:00:36;;;;;;;6.40;3.70;;;;;;;6.52;62.71;99687.02;107872;1256;72627;-63
2023/02/04 00:03:05;;;;;;;7.60;4.10;;;;;;;6.38;62.99;99687.74;107696;1256;60827;-63
2023/02/04 00:05:33;;;;;;;7.20;3.70;;;;;;;6.59;62.36;99683.70;107885;1256;60330;-64
2023/02/04 00:08:02;;;;;;;6.00;4.00;;;;;;;6.76;61.78;99683.56;107656;1256;75112;-64
2023/02/04 00:10:32;;;;;;;7.90;4.80;;;;;;;6.65;61.94;99684.02;108217;1256;70769;-64
2023/02/04 00:13:02;;;;;;;9.50;4.10;;;;;;;6.66;62.27;99679.99;107867;1254;73222;-64
2023/02/04 00:15:35;;;;;;;7.20;4.00;;;;;;;6.57;62.45;99673.63;107905;1254;60844;-64
2023/02/04 00:18:06;;;;;;;7.00;3.80;;;;;;;6.08;63.23;99673.20;108056;1254;61290;-64
2023/02/04 00:20:34;;;;;;;8.50;4.10;;;;;;;6.06;63.21;99670.80;107707;1254;75075;-64
2023/02/04 00:23:02;;;;;;;7.60;4.20;;;;;;;6.19;62.79;99673.42;108044;1254;70638;-63
2023/02/04 00:25:30;;;;;;;8.10;4.50;;;;;;;6.23;62.50;99673.14;108050;1254;72925;-64
2023/02/04 00:27:58;;;;;;;8.90;4.40;;;;;;;6.11;62.96;99677.29;107977;1254;62217;-67
2023/02/04 00:30:26;;;;;;;5.90;3.60;;;;;;;6.00;62.93;99675.48;107955;1254;61602;-65
2023/02/04 00:32:55;;;;;;;6.60;4.10;;;;;;;6.07;62.71;99677.74;108033;1254;74831;-65
2023/02/04 00:35:24;;;;;;;5.40;4.10;;;;;;;6.12;62.89;99674.29;107963;1254;69681;-65
2023/02/04 00:37:53;;;;;;;6.20;4.00;;;;;;;6.43;62.09;99671.39;108002;1258;72070;-65
2023/02/04 00:40:21;;;;;;;7.10;4.00;;;;;;;6.72;61.87;99670.77;107976;1254;61922;-64
2023/02/04 00:42:49;;;;;;;5.90;3.70;;;;;;;6.93;61.13;99670.84;108054;1254;61100;-64
2023/02/04 00:45:17;;;;;;;5.60;3.80;;;;;;;6.52;61.47;99673.24;108015;1254;74237;-63
2023/02/04 00:47:45;;;;;;;7.50;4.30;;;;;;;6.58;61.42;99671.85;108034;1254;71260;-64
2023/02/04 00:50:14;;;;;;;6.20;3.60;;;;;;;6.68;60.68;99667.70;108060;1254;72615;-64
2023/02/04 00:52:43;;;;;;;6.90;3.60;;;;;;;6.54;61.20;99666.38;108054;1254;60348;-65
2023/02/04 00:55:12;;;;;;;7.80;3.60;;;;;;;6.42;61.57;99664.44;108030;1254;61588;-63
2023/02/04 00:57:40;;;;;;;5.40;3.90;;;;;;;6.38;61.27;99666.63;108024;1254;74132;-65
2023/02/04 01:00:09;;;;;;;6.80;3.90;;;;;;;6.51;60.98;99663.65;107946;1255;69306;-63
2023/02/04 01:02:39;;;;;;;6.30;4.00;;;;;;;6.50;60.30;99668.92;108018;1254;71749;-63
2023/02/04 01:05:08;;;;;;;6.20;3.90;;;;;;;6.26;61.00;99671.15;107993;1254;62346;-63
2023/02/04 01:07:39;;;;;;;7.80;3.40;;;;;;;6.09;61.81;99671.78;107988;1254;60432;-63
2023/02/04 01:10:08;;;;;;;5.60;3.50;;;;;;;6.01;62.14;99679.80;107973;1254;75117;-65
2023/02/04 01:12:37;;;;;;;8.50;3.40;;;;;;;6.10;62.24;99676.10;108015;1254;71557;-64
2023/02/04 01:15:07;;;;;;;6.80;3.50;;;;;;;6.22;62.04;99675.45;107994;1255;73734;-63
2023/02/04 01:17:38;;;;;;;6.80;3.60;;;;;;;6.19;61.85;99672.05;108019;1254;60878;-64
2023/02/04 01:20:08;;;;;;;7.00;4.00;;;;;;;6.12;62.13;99674.48;107973;1254;61376;-64
2023/02/04 01:22:36;;;;;;;5.10;4.00;;;;;;;5.94;62.25;99672.66;107715;1254;72480;-66
2023/02/04 01:25:05;;;;;;;7.20;3.30;;;;;;;5.96;62.44;99675.75;107889;1255;71381;-64
2023/02/04 01:27:40;;;;;;;5.60;3.20;;;;;;;6.13;62.37;99670.61;108065;1256;72453;-65
2023/02/04 01:30:10;;;;;;;5.00;3.70;;;;;;;6.09;62.19;99668.98;107938;1256;62657;-63
2023/02/04 01:32:38;;;;;;;7.70;3.90;;;;;;;5.96;62.46;99668.77;108000;1256;61066;-64
2023/02/04 01:35:07;;;;;;;5.50;3.60;;;;;;;5.88;62.46;99664.25;108051;1255;73708;-63
2023/02/04 01:37:36;;;;;;;5.00;3.60;;;;;;;6.09;61.91;99664.95;107690;1256;71440;-64
2023/02/04 01:40:06;;;;;;;8.10;4.00;;;;;;;6.24;61.74;99659.52;107968;1256;73723;-63
2023/02/04 01:42:35;;;;;;;7.10;4.10;;;;;;;6.26;61.49;99662.60;108030;1256;61011;-61
2023/02/04 01:45:05;;;;;;;6.00;3.50;;;;;;;6.42;61.26;99666.16;107953;1255;61352;-63
2023/02/04 01:47:34;;;;;;;6.80;3.60;;;;;;;6.43;61.44;99668.24;107965;1259;75089;-63
2023/02/04 01:50:02;;;;;;;6.40;4.00;;;;;;;6.44;61.09;99665.94;107894;1256;70340;-66
2023/02/04 01:52:34;;;;;;;7.30;3.90;;;;;;;6.49;61.25;99666.86;107866;1256;73535;-64
2023/02/04 01:55:05;;;;;;;6.60;4.00;;;;;;;6.48;61.23;99665.14;107876;1256;62145;-65
2023/02/04 01:57:33;;;;;;;4.90;3.40;;;;;;;6.51;60.88;99667.49;107747;1256;61475;-65
2023/02/04 02:00:01;;;;;;;5.70;4.10;;;;;;;6.57;60.94;99668.04;107756;1256;74887;-63
2023/02/04 02:02:47;;;;;;;5.90;3.60;;;;;;;6.72;60.60;99665.34;107937;1255;71584;-63
2023/02/04 02:05:19;;;;;;;5.70;3.20;;;;;;;6.58;60.85;99662.58;107961;1255;73000;-63
2023/02/04 02:07:48;;;;;;;5.60;3.30;;;;;;;6.41;61.55;99659.93;107887;1256;62184;-63
2023/02/04 02:10:17;;;;;;;6.90;3.90;;;;;;;6.60;60.94;99659.40;108006;1256;60343;-64
2023/02/04 02:12:45;;;;;;;5.40;3.30;;;;;;;6.79;60.67;99658.70;107800;1256;74808;-64
2023/02/04 02:15:15;;;;;;;5.00;3.70;;;;;;;6.99;60.03;99661.23;107959;1256;71629;-61
2023/02/04 02:17:44;;;;;;;5.00;3.00;;;;;;;7.28;59.29;99661.58;107898;1256;73368;-63
2023/02/04 02:20:15;;;;;;;5.10;3.20;;;;;;;7.21;59.62;99661.98;107990;1256;61427;-62
2023/02/04 02:23:01;;;;;;;5.20;3.10;;;;;;;7.19;59.46;99666.05;107927;1256;61236;-63
2023/02/04 02:25:31;;;;;;;6.50;3.70;;;;;;;7.38;58.97;99669.13;107941;1256;75369;-63
2023/02/04 02:27:59;;;;;;;4.50;3.30;;;;;;;7.27;59.00;99668.76;107787;1256;70218;-63
2023/02/04 02:30:28;;;;;;;4.90;3.50;;;;;;;7.18;59.23;99669.40;107994;1255;73838;-63
2023/02/04 02:32:56;;;;;;;7.80;3.30;;;;;;;7.36;58.89;99671.45;108025;1255;62147;-63
2023/02/04 02:35:25;;;;;;;7.00;3.50;;;;;;;7.37;58.74;99667.93;107948;1254;61117;-67
2023/02/04 02:37:53;;;;;;;5.00;3.40;;;;;;;7.33;58.59;99668.59;107987;1259;75097;-61
2023/02/04 02:40:21;;;;;;;7.40;4.20;;;;;;;7.43;58.22;99667.59;107923;1254;71775;-61
2023/02/04 02:42:50;;;;;;;4.80;3.40;;;;;;;7.48;58.07;99668.30;108030;1255;73867;-62
2023/02/04 02:45:25;;;;;;;5.10;3.10;;;;;;;7.35;58.18;99666.08;108059;1256;60590;-63
2023/02/04 02:47:53;;;;;;;8.00;4.40;;;;;;;7.43;58.58;99666.88;108032;1256;61048;-62
2023/02/04 02:50:24;;;;;;;5.80;3.90;;;;;;;7.35;58.14;99668.88;107924;1254;74837;-63
2023/02/04 02:52:52;;;;;;;5.60;3.40;;;;;;;7.81;57.43;99665.46;107988;1254;71512;-63
2023/02/04 02:55:23;;;;;;;6.00;4.40;;;;;;;7.32;58.22;99664.96;108035;1258;72860;-63
2023/02/04 02:57:52;;;;;;;6.50;3.90;;;;;;;7.07;59.15;99668.49;108006;1254;60392;-62
2023/02/04 03:00:23;;;;;;;5.50;3.20;;;;;;;6.60;60.90;99669.86;107947;1255;61816;-61
2023/02/04 03:03:06;;;;;;;6.00;4.00;;;;;;;6.84;60.21;99665.88;107950;1255;72804;-63
2023/02/04 03:05:41;;;;;;;5.90;3.80;;;;;;;7.21;59.44;99666.88;108019;1254;71353;-64
2023/02/04 03:08:11;;;;;;;5.40;3.60;;;;;;;7.58;58.66;99667.27;107982;1256;73089;-63
2023/02/04 03:10:39;;;;;;;5.70;3.70;;;;;;;7.21;58.86;99671.41;108007;1254;61371;-63
2023/02/04 03:13:07;;;;;;;5.30;3.30;;;;;;;6.98;59.37;99673.48;107989;1256;60317;-63
2023/02/04 03:15:35;;;;;;;6.40;3.60;;;;;;;6.88;59.98;99676.77;107894;1254;75041;-63
2023/02/04 03:18:04;;;;;;;5.10;3.80;;;;;;;6.67;60.39;99674.90;108009;1256;71323;-64
2023/02/04 03:20:33;;;;;;;7.60;3.80;;;;;;;6.76;60.23;99675.86;108026;1256;73871;-61
2023/02/04 03:23:01;;;;;;;5.30;3.80;;;;;;;6.43;60.94;99674.35;107963;1254;60796;-63
2023/02/04 03:25:30;;;;;;;5.10;3.40;;;;;;;6.64;60.75;99676.22;107967;1256;60412;-65
2023/02/04 03:27:58;;;;;;;5.70;4.00;;;;;;;6.63;60.60;99676.42;107907;1254;74684;-65
2023/02/04 03:30:26;;;;;;;7.40;3.90;;;;;;;6.72;60.42;99683.67;107895;1254;70813;-63
2023/02/04 03:32:55;;;;;;;5.60;3.70;;;;;;;6.70;60.71;99686.16;107971;1255;73967;-63
2023/02/04 03:35:23;;;;;;;5.90;4.20;;;;;;;6.58;61.03;99687.02;107946;1254;61018;-64
2023/02/04 03:37:51;;;;;;;5.30;3.60;;;;;;;6.47;61.14;99688.38;107930;1255;61275;-63
2023/02/04 03:40:20;;;;;;;8.80;3.90;;;;;;;6.49;60.99;99687.24;107935;1255;75255;-63
2023/02/04 03:42:48;;;;;;;8.90;4.00;;;;;;;6.71;60.45;99687.70;107907;1260;71580;-62
2023/02/04 03:45:16;;;;;;;6.90;4.10;;;;;;;6.46;60.59;99689.77;107952;1258;72903;-63
2023/02/04 03:47:44;;;;;;;8.50;4.50;;;;;;;6.41;60.88;99690.63;107959;1254;62366;-62
2023/02/04 03:50:13;;;;;;;7.60;4.00;;;;;;;6.93;59.56;99690.55;108035;1254;60597;-61
2023/02/04 03:52:43;;;;;;;11.10;4.60;;;;;;;7.00;59.54;99689.84;108005;1254;73692;-61
2023/02/04 03:55:12;;;;;;;8.90;4.50;;;;;;;6.65;60.11;99694.66;107986;1255;70934;-61
2023/02/04 03:57:40;;;;;;;8.20;4.50;;;;;;;6.76;59.87;99692.79;107942;1255;72163;-62
2023/02/04 04:00:10;;;;;;;7.40;4.30;;;;;;;6.63;60.51;99692.30;107973;1256;60567;-63
2023/02/04 04:02:41;;;;;;;11.00;6.20;;;;;;;6.78;60.21;99692.02;107966;1254;61553;-62
2023/02/04 04:05:10;;;;;;;7.50;4.60;;;;;;;6.95;59.34;99691.17;107971;1256;75022;-63
2023/02/04 04:07:39;;;;;;;7.90;5.20;;;;;;;6.71;60.02;99698.01;108086;1258;70700;-62
2023/02/04 04:10:09;;;;;;;11.80;5.40;;;;;;;6.83;59.39;99699.73;107996;1256;73775;-64
2023/02/04 04:12:37;;;;;;;11.20;5.30;;;;;;;7.05;59.05;99700.50;107975;1256;61044;-64
2023/02/04 04:15:05;;;;;;;8.90;5.20;;;;;;;6.99;59.09;99706.63;107989;1254;60558;-65
2023/02/04 04:17:34;;;;;;;8.90;5.50;;;;;;;7.01;58.80;99707.43;107976;1256;74836;-65
2023/02/04 04:20:04;;;;;;;10.60;5.20;;;;;;;7.16;58.75;99708.56;108012;1254;71392;-65
2023/02/04 04:22:32;;;;;;;10.40;5.60;;;;;;;7.07;59.03;99711.64;107937;1254;72755;-65
2023/02/04 04:25:00;;;;;;;11.60;5.60;;;;;;;7.07;59.18;99713.70;107990;1254;61292;-64
2023/02/04 04:27:29;;;;;;;10.70;5.30;;;;;;;6.79;59.90;99720.82;107955;1256;60356;-65
2023/02/04 04:29:58;;;;;;;10.70;5.10;;;;;;;7.01;59.55;99724.19;107913;1256;73313;-64
2023/02/04 04:32:26;;;;;;;11.30;5.00;;;;;;;7.07;59.51;99720.88;107933;1256;70612;-65
2023/02/04 04:34:54;;;;;;;11.10;5.20;;;;;;;6.97;59.72;99728.31;107914;1255;73583;-65
2023/02/04 04:37:22;;;;;;;9.50;5.50;;;;;;;7.11;59.19;99727.92;107940;1256;60380;-63
2023/02/04 04:39:51;;;;;;;11.60;5.80;;;;;;;7.07;59.63;99729.42;107765;1256;61028;-63
2023/02/04 04:42:19;;;;;;;12.60;5.80;;;;;;;6.93;59.81;99728.79;107949;1256;74213;-63
2023/02/04 04:44:48;;;;;;;10.50;5.70;;;;;;;7.06;59.71;99730.52;107957;1259;69938;-63
2023/02/04 04:47:17;;;;;;;12.90;6.30;;;;;;;7.21;59.27;99728.84;107900;1260;73823;-64
2023/02/04 04:49:46;;;;;;;14.70;5.60;;;;;;;6.64;60.64;99736.21;107938;1256;62159;-64
2023/02/04 04:52:14;;;;;;;10.70;5.90;;;;;;;6.25;62.15;99736.88;107967;1256;61532;-64
2023/02/04 04:54:42;;;;;;;10.80;5.90;;;;;;;6.26;62.04;99737.23;107715;1256;74977;-63
2023/02/04 04:57:11;;;;;;;9.90;5.10;;;;;;;6.25;61.89;99739.86;107931;1256;71175;-63
2023/02/04 04:59:38;;;;;;;9.80;5.40;;;;;;;6.14;62.14;99740.48;107891;1256;73642;-64
2023/02/04 05:02:07;;;;;;;13.10;5.40;;;;;;;6.07;62.11;99744.67;107900;1256;62294;-64
2023/02/04 05:04:35;;;;;;;8.90;4.80;;;;;;;6.02;62.36;99741.81;107927;1256;61268;-63
2023/02/04 05:07:03;;;;;;;10.00;5.80;;;;;;;6.26;62.22;99742.80;107909;1256;74111;-64
2023/02/04 05:09:33;;;;;;;9.80;5.80;;;;;;;6.34;61.68;99745.56;107891;1256;71500;-64
2023/02/04 05:12:01;;;;;;;12.80;6.10;;;;;;;6.38;61.47;99752.07;107969;1256;73757;-63
2023/02/04 05:14:29;;;;;;;11.30;6.10;;;;;;;6.37;61.37;99752.80;107918;1256;62201;-64
2023/02/04 05:16:57;;;;;;;9.50;5.20;;;;;;;6.59;60.87;99752.23;107925;1256;61021;-63
2023/02/04 05:19:26;;;;;;;9.00;5.30;;;;;;;6.69;60.65;99750.90;107915;1255;74985;-64
2023/02/04 05:21:54;;;;;;;10.90;5.00;;;;;;;6.51;60.90;99759.23;107981;1256;71447;-65
2023/02/04 05:24:23;;;;;;;8.30;4.90;;;;;;;6.67;61.08;99760.23;107893;1256;73909;-62
2023/02/04 05:26:51;;;;;;;9.70;5.00;;;;;;;6.97;60.52;99766.54;107902;1256;62128;-64
2023/02/04 05:29:19;;;;;;;14.70;6.10;;;;;;;6.96;59.99;99767.80;107944;1255;61696;-65
2023/02/04 05:31:47;;;;;;;11.20;6.00;;;;;;;6.76;60.23;99778.11;107986;1254;74891;-64
2023/02/04 05:34:16;;;;;;;12.50;5.50;;;;;;;6.74;60.36;99778.16;107998;1254;71102;-63
2023/02/04 05:36:44;;;;;;;9.30;5.30;;;;;;;6.77;60.08;99781.40;107990;1254;73649;-62
2023/02/04 05:39:12;;;;;;;10.50;5.30;;;;;;;6.68;60.64;99790.17;107990;1254;62248;-64
2023/02/04 05:41:41;;;;;;;10.90;5.70;;;;;;;6.55;60.67;99790.72;107976;1254;61549;-63
2023/02/04 05:44:09;;;;;;;12.70;5.80;;;;;;;6.74;60.29;99792.65;108017;1254;74161;-62
2023/02/04 05:46:38;;;;;;;9.00;5.60;;;;;;;6.59;60.67;99798.10;108075;1254;70446;-64
2023/02/04 05:49:07;;;;;;;7.60;4.70;;;;;;;6.41;60.77;99801.52;108002;1254;73797;-64
2023/02/04 05:51:35;;;;;;;11.10;5.80;;;;;;;6.92;59.89;99797.39;107932;1254;60404;-63
2023/02/04 05:54:03;;;;;;;9.70;4.60;;;;;;;7.21;59.26;99801.14;107961;1254;61223;-64
2023/02/04 05:56:32;;;;;;;8.30;4.60;;;;;;;7.30;58.99;99808.23;107926;1256;74926;-63
2023/02/04 05:59:00;;;;;;;8.30;5.50;;;;;;;7.63;58.19;99810.38;107940;1254;71058;-62
2023/02/04 06:01:29;;;;;;;9.80;4.80;;;;;;;8.22;56.94;99814.84;107922;1254;72278;-64
2023/02/04 06:03:57;;;;;;;10.20;5.30;;;;;;;8.95;55.34;99813.64;107904;1256;62234;-65
2023/02/04 06:06:25;;;;;;;9.70;5.20;;;;;;;8.29;56.27;99825.99;107934;1256;61299;-64
2023/02/04 06:08:53;;;;;;;10.10;4.90;;;;;;;7.24;58.59;99826.19;107957;1254;74813;-64
2023/02/04 06:11:23;;;;;;;10.20;5.00;;;;;;;7.17;59.34;99825.84;107969;1254;71106;-64
2023/02/04 06:13:51;;;;;;;9.20;4.60;;;;;;;7.35;59.16;99827.09;107905;1254;72405;-64
2023/02/04 06:16:19;;;;;;;9.60;5.00;;;;;;;7.38;59.10;99825.08;107920;1256;62094;-64
2023/02/04 06:18:47;;;;;;;10.40;4.80;;;;;;;7.47;58.91;99822.91;108018;1254;60277;-65
2023/02/04 06:21:15;;;;;;;8.00;4.50;;;;;;;7.38;59.26;99827.17;108058;1255;74878;-64
2023/02/04 06:23:43;;;;;;;9.00;4.70;;;;;;;7.40;59.47;99830.81;107950;1256;71736;-66
2023/02/04 06:26:12;;;;;;;10.30;4.60;;;;;;;7.45;59.06;99830.84;108096;1258;73566;-63
2023/02/04 06:28:40;;;;;;;7.30;4.10;;;;;;;7.28;59.50;99827.46;108020;1254;62384;-64
2023/02/04 06:31:08;;;;;;;8.20;5.30;;;;;;;7.40;59.54;99828.86;108012;1254;61241;-63
2023/02/04 06:33:37;;;;;;;9.50;4.60;;;;;;;7.47;59.24;99829.55;107972;1256;73124;-64
2023/02/04 06:36:06;;;;;;;9.50;5.20;;;;;;;7.47;58.98;99830.77;107991;1254;71486;-64
2023/02/04 06:38:35;;;;;;;8.20;5.00;;;;;;;7.39;59.05;99833.45;107981;1256;73772;-65
2023/02/04 06:41:03;;;;;;;7.10;4.50;;;;;;;7.36;59.37;99839.31;108037;1254;61882;-64
2023/02/04 06:43:32;;;;;;;8.50;5.20;;;;;;;7.75;58.84;99846.55;107943;1256;61559;-65
2023/02/04 06:46:01;;;;;;;8.70;5.30;;;;;;;7.78;58.54;99848.70;108024;1258;74422;-63
2023/02/04 06:48:30;;;;;;;7.30;4.70;;;;;;;7.93;58.39;99848.96;108031;1254;70329;-65
2023/02/04 06:50:59;;;;;;;8.40;5.20;;;;;;;7.58;59.11;99857.52;107955;1256;73639;-65
2023/02/04 06:53:27;;;;;;;9.90;4.30;;;;;;;7.65;58.97;99855.73;108056;1256;62096;-64
2023/02/04 06:55:55;;;;;;;8.50;4.70;;;;;;;7.55;59.19;99856.04;108038;1256;61069;-65
2023/02/04 06:58:24;;;;;;;8.60;4.50;;;;;;;7.35;59.21;99860.64;108013;1256;74085;-64
2023/02/04 07:00:53;;;;;;;9.80;5.10;;;;;;;7.21;59.98;99866.41;108056;1254;70468;-65
2023/02/04 07:03:21;;;;;;;9.10;5.30;;;;;;;7.51;59.65;99862.45;107999;1254;73399;-65
2023/02/04 07:05:51;;;;;;;8.70;4.50;;;;;;;7.62;59.38;99865.27;108044;1256;62325;-65
2023/02/04 07:08:20;;;;;;;9.90;5.10;;;;;;;7.90;58.64;99865.84;107999;1254;61282;-64
2023/02/04 07:10:50;;;;;;;8.50;5.40;;;;;;;8.07;57.64;99869.18;107991;1254;75143;-64
2023/02/04 07:13:19;;;;;;;8.60;4.80;;;;;;;7.85;58.23;99868.27;108035;1254;71172;-64
2023/02/04 07:15:47;;;;;;;9.20;4.90;;;;;;;7.97;58.04;99870.37;107866;1255;73281;-65
2023/02/04 07:18:16;;;;;;;8.70;5.20;;;;;;;8.05;57.81;99875.36;107983;1254;61515;-63
2023/02/04 07:20:47;;;;;;;7.20;4.60;;;;;;;8.36;57.33;99873.20;107993;1254;60394;-64
2023/02/04 07:23:15;;;;;;;9.10;4.60;;;;;;;8.19;57.52;99877.21;108000;1254;74775;-63
2023/02/04 07:25:44;;;;;;;7.30;4.30;;;;;;;8.24;57.20;99881.08;108041;1254;71279;-61
2023/02/04 07:28:12;;;;;;;5.20;4.00;;;;;;;8.32;57.56;99884.48;107941;1258;73588;-64
2023/02/04 07:30:41;;;;;;;9.30;4.40;;;;;;;8.76;56.53;99880.47;107872;1256;62345;-65
2023/02/04 07:33:09;;;;;;;8.10;4.50;;;;;;;8.72;56.09;99881.80;108070;1255;60806;-63
2023/02/04 07:35:37;;;;;;;8.80;4.70;;;;;;;9.03;55.33;99879.87;107922;1256;72645;-67
2023/02/04 07:38:05;;;;;;;6.90;3.90;;;;;;;9.17;54.78;99885.01;107942;1256;71314;-65
2023/02/04 07:40:33;;;;;;;8.30;4.30;;;;;;;8.92;55.20;99881.33;107830;1256;235954;-64
2023/02/04 07:43:58;;;;;;;8.30;4.50;;;;;;;7.26;60.34;99888.37;104835;1291;601105;-65
2023/02/04 07:46:26;;;;;;;5.90;3.80;;;;;;;8.70;55.99;99887.48;107356;1266;62142;-64
2023/02/04 07:48:55;;;;;;;5.80;3.40;;;;;;;8.40;56.12;99889.85;107311;1267;61052;-64
2023/02/04 07:51:23;;;;;;;7.40;4.20;;;;;;;8.50;56.14;99892.13;107282;1271;72068;-64
2023/02/04 07:53:55;;;;;;;6.30;3.80;;;;;;;8.72;55.23;99893.03;107721;1260;70784;-60
2023/02/04 07:56:23;;;;;;;5.80;3.70;;;;;;;8.54;54.65;99893.25;107797;1260;74064;-64
2023/02/04 07:58:52;;;;;;;6.40;4.10;;;;;;;8.61;54.41;99896.70;107662;1257;60369;-64
2023/02/04 08:01:20;;;;;;;5.40;3.80;;;;;;;8.84;53.48;99896.98;108026;1256;61414;-64
2023/02/04 08:03:48;;;;;;;6.10;3.80;;;;;;;8.73;53.47;99899.66;107901;1257;73425;-65
2023/02/04 08:06:16;;;;;;;5.70;3.80;;;;;;;8.64;53.79;99896.27;107948;1257;71270;-65
2023/02/04 08:08:44;;;;;;;5.50;3.50;;;;;;;8.69;54.22;99901.17;107921;1257;73929;-64
2023/02/04 08:11:14;;;;;;;4.60;3.50;;;;;;;8.63;54.51;99904.86;108212;1254;59594;-64
2023/02/04 08:13:43;;;;;;;5.10;3.30;;;;;;;8.82;53.95;99904.25;108246;1254;61352;-64
2023/02/04 08:16:11;;;;;;;5.20;3.80;;;;;;;8.83;53.71;99904.04;108197;1256;73262;-63
2023/02/04 08:18:39;;;;;;;6.80;4.10;;;;;;;8.92;53.53;99908.98;108198;1252;71131;-64
2023/02/04 08:21:07;;;;;;;5.20;3.50;;;;;;;8.98;52.98;99911.91;108215;1252;73744;-63
2023/02/04 08:23:40;;;;;;;6.90;3.90;;;;;;;9.02;52.82;99916.17;108188;1253;62304;-64
2023/02/04 08:26:10;;;;;;;5.90;3.70;;;;;;;9.06;52.76;99917.45;108198;1254;61563;-63
2023/02/04 08:28:38;;;;;;;6.10;3.90;;;;;;;8.96;53.61;99918.15;108222;1254;73067;-65
2023/02/04 08:31:10;;;;;;;5.60;3.70;;;;;;;8.98;53.78;99920.85;108198;1254;71254;-64
2023/02/04 08:33:40;;;;;;;4.50;3.30;;;;;;;9.17;53.35;99921.61;108161;1258;73644;-65
2023/02/04 08:36:08;;;;;;;5.10;3.40;;;;;;;9.11;52.93;99923.05;108218;1259;62177;-64
2023/02/04 08:38:36;;;;;;;5.10;3.80;;;;;;;9.11;53.14;99921.83;108201;1254;60563;-65
2023/02/04 08:41:04;;;;;;;4.50;3.30;;;;;;;9.27;52.89;99924.79;108186;1254;74160;-61
2023/02/04 08:43:34;;;;;;;6.00;3.60;;;;;;;9.41;52.73;99931.63;108190;1259;70451;-63
2023/02/04 08:46:04;;;;;;;5.90;3.70;;;;;;;9.81;51.42;99934.23;108159;1259;72301;-64
2023/02/04 08:48:34;;;;;;;6.70;3.80;;;;;;;9.90;51.26;99937.04;108182;1254;62390;-64
2023/02/04 08:51:02;;;;;;;3.60;3.10;;;;;;;9.76;51.46;99936.36;108101;1254;61429;-64
2023/02/04 08:53:31;;;;;;;6.60;3.90;;;;;;;9.64;51.24;99937.30;108169;1259;74017;-62
2023/02/04 08:55:59;;;;;;;4.80;3.70;;;;;;;9.13;52.54;99944.36;108133;1254;71093;-63
2023/02/04 08:58:28;;;;;;;6.30;4.00;;;;;;;9.13;52.45;99942.94;108178;1254;73558;-62
2023/02/04 09:00:56;;;;;;;4.60;3.40;;;;;;;9.57;51.53;99940.72;108123;1254;60033;-63
2023/02/04 09:03:24;;;;;;;5.70;4.00;;;;;;;9.55;51.75;99943.09;108116;1253;60902;-63
2023/02/04 09:05:52;;;;;;;5.80;4.00;;;;;;;9.46;51.33;99942.16;108114;1257;74270;-63
2023/02/04 09:08:20;;;;;;;6.40;3.90;;;;;;;9.67;51.20;99944.55;108195;1254;72048;-59
2023/02/04 09:10:48;;;;;;;5.10;3.60;;;;;;;9.56;51.51;99947.42;108124;1254;72668;-64
2023/02/04 09:13:17;;;;;;;5.60;3.80;;;;;;;9.68;50.96;99945.59;108114;1254;62415;-64
2023/02/04 09:15:45;;;;;;;5.70;4.30;;;;;;;9.62;51.24;99944.38;108059;1260;60640;-62
2023/02/04 09:18:15;;;;;;;6.30;3.80;;;;;;;9.84;51.11;99941.82;108143;1256;74307;-64
2023/02/04 09:20:43;;;;;;;6.50;3.90;;;;;;;9.66;51.63;99941.80;108160;1255;71404;-62
2023/02/04 09:23:13;;;;;;;7.30;4.00;;;;;;;9.52;52.18;99941.23;108152;1258;74048;-64
2023/02/04 09:25:42;;;;;;;3.60;3.20;;;;;;;9.67;51.76;99942.11;108125;1254;61900;-64
2023/02/04 09:28:15;;;;;;;6.90;4.10;;;;;;;9.84;51.53;99934.63;108071;1255;61447;-63
2023/02/04 09:30:45;;;;;;;5.80;4.10;;;;;;;9.92;51.34;99937.33;107952;1254;73981;-64
2023/02/04 09:33:15;;;;;;;5.30;3.70;;;;;;;9.44;51.88;99940.11;108012;1254;69626;-64
2023/02/04 09:35:44;;;;;;;5.10;3.90;;;;;;;9.35;52.54;99940.27;108087;1257;73220;-63
2023/02/04 09:38:12;;;;;;;7.20;3.50;;;;;;;9.44;52.26;99939.59;108058;1258;62099;-64
2023/02/04 09:40:46;;;;;;;6.20;3.80;;;;;;;9.50;51.61;99938.16;108083;1254;61380;-64
2023/02/04 09:43:17;;;;;;;6.20;3.70;;;;;;;9.36;52.09;99941.27;107983;1256;74170;-61
2023/02/04 09:45:47;;;;;;;6.10;3.90;;;;;;;9.31;51.92;99937.09;108148;1254;71237;-64
2023/02/04 09:48:16;;;;;;;5.30;3.40;;;;;;;9.37;51.93;99944.39;108107;1259;74035;-64
2023/02/04 09:50:44;;;;;;;6.60;3.90;;;;;;;9.31;52.17;99944.61;107982;1255;62411;-64
2023/02/04 09:53:14;;;;;;;5.80;3.70;;;;;;;9.12;52.62;99943.68;108141;1255;61388;-65
2023/02/04 09:55:43;;;;;;;;;;;;;;;8.98;53.22;99944.66;108213;1255;74165;-64
2023/02/04 09:58:16;;;;;;;4.30;3.60;;;;;;;9.15;53.22;99944.80;108185;1256;71267;-65
2023/02/04 10:00:46;;;;;;;4.50;3.50;;;;;;;9.51;52.83;99946.36;108072;1259;74008;-64
2023/02/04 10:03:18;;;;;;;7.50;4.40;;;;;;;9.21;53.42;99947.91;108110;1255;61456;-64
2023/02/04 10:05:46;;;;;;;5.50;3.60;;;;;;;9.19;52.83;99945.88;108043;1254;62072;-64
2023/02/04 10:08:17;;;;;;;4.70;3.70;;;;;;;9.28;53.06;99947.00;108168;1254;72134;-63
2023/02/04 10:10:45;;;;;;;7.80;4.30;;;;;;;9.58;52.31;99945.94;108041;1254;71537;-62
2023/02/04 10:13:23;;;;;;;7.40;4.00;;;;;;;9.50;52.49;99947.29;108156;1260;72802;-63
2023/02/04 10:15:52;;;;;;;5.50;3.90;;;;;;;9.35;53.27;99952.69;108090;1254;61334;-64
2023/02/04 10:18:24;;;;;;;5.70;4.20;;;;;;;9.23;53.26;99957.85;108037;1254;61455;-64
2023/02/04 10:21:10;;;;;;;6.90;4.30;;;;;;;9.22;53.21;99961.03;108057;1254;74050;-64
2023/02/04 10:23:40;;;;;;;7.10;4.00;;;;;;;9.39;52.56;99963.96;107951;1255;71034;-63
2023/02/04 10:26:10;;;;;;;7.30;4.60;;;;;;;9.90;51.40;99962.98;108164;1254;72610;-62
2023/02/04 10:28:39;;;;;;;7.10;4.00;;;;;;;10.16;50.60;99964.86;108194;1254;61764;-62
2023/02/04 10:31:36;;;;;;;5.90;4.00;;;;;;;9.72;51.09;99970.14;108352;1253;61575;-63
2023/02/04 10:34:13;;;;;;;7.70;4.30;;;;;;;9.76;51.01;99971.41;108205;1254;73771;-62
2023/02/04 10:36:52;;;;;;;6.40;3.70;;;;;;;9.60;51.63;99974.60;108208;1254;71274;-63
2023/02/04 10:39:22;;;;;;;6.00;3.90;;;;;;;9.07;52.99;99981.52;108225;1256;73732;-62
2023/02/04 10:41:55;;;;;;;6.40;3.80;;;;;;;9.14;52.79;99982.33;108278;1253;60982;-62
2023/02/04 10:44:32;;;;;;;4.90;3.90;;;;;;;9.37;52.81;99988.55;108200;1253;61501;-61
2023/02/04 10:47:01;;;;;;;6.20;3.80;;;;;;;9.60;52.44;99988.80;108241;1256;74301;-64
2023/02/04 10:49:32;;;;;;;5.60;3.80;;;;;;;9.76;51.79;99986.50;108201;1253;71245;-65
2023/02/04 10:52:00;;;;;;;9.30;4.50;;;;;;;9.92;51.93;99984.84;108275;1254;73561;-62
2023/02/04 10:54:34;;;;;;;17.90;7.50;;;;;;;10.04;51.39;99989.67;108312;1254;61518;-64
2023/02/04 10:57:02;;;;;;;14.40;5.90;;;;;;;9.55;52.29;100000.55;108067;1254;61620;-64
2023/02/04 10:59:30;;;;;;;41.50;12.10;;;;;;;9.70;52.15;100002.14;108200;1254;74258;-62
2023/02/04 11:02:00;;;;;;;16.30;7.00;;;;;;;9.76;51.90;100007.71;108233;1255;71625;-64
2023/02/04 11:04:28;;;;;;;12.70;5.50;;;;;;;9.73;51.81;100009.55;108191;1254;73863;-62
2023/02/04 11:06:56;;;;;;;14.80;6.00;;;;;;;10.10;51.19;100011.90;108205;1254;60370;-63
2023/02/04 11:09:25;;;;;;;11.30;5.50;;;;;;;9.93;51.39;100014.46;108244;1254;59745;-64
2023/02/04 11:11:56;;;;;;;10.70;5.30;;;;;;;9.82;51.69;100023.09;108134;1256;73412;-64
2023/02/04 11:14:28;;;;;;;30.20;10.10;;;;;;;10.03;50.95;100022.36;108146;1255;70058;-63
2023/02/04 11:17:00;;;;;;;19.10;7.70;;;;;;;10.09;50.68;100026.52;108142;1257;73851;-63
2023/02/04 11:19:36;;;;;;;17.40;8.20;;;;;;;10.00;50.92;100031.93;108199;1254;60970;-63
2023/02/04 11:22:20;;;;;;;8.60;4.90;;;;;;;9.96;50.26;100031.17;108221;1253;61166;-62
2023/02/04 11:24:49;;;;;;;10.40;5.40;;;;;;;10.11;50.32;100037.11;108264;1252;72387;-64
2023/02/04 11:27:19;;;;;;;8.30;4.90;;;;;;;10.32;50.09;100037.61;108303;1255;71484;-64
2023/02/04 11:29:47;;;;;;;6.80;4.00;;;;;;;10.02;50.13;100041.66;108103;1254;72043;-62
2023/02/04 11:32:31;;;;;;;6.80;4.70;;;;;;;9.99;50.61;100040.20;108081;1254;61279;-64
2023/02/04 11:35:11;;;;;;;5.50;4.20;;;;;;;10.14;50.16;100039.66;108094;1255;61343;-65
2023/02/04 11:37:40;;;;;;;7.30;4.50;;;;;;;10.21;49.68;100037.83;108099;1254;73755;-63
2023/02/04 11:40:28;;;;;;;5.70;4.00;;;;;;;10.35;49.35;100036.46;108193;1255;71567;-63
2023/02/04 11:43:09;;;;;;;6.10;4.50;;;;;;;10.56;48.94;100036.19;108104;1254;73892;-63